Time;durP1;ratioP1;P1;durP2;ratioP2;P2;SDS_P1;SDS_P2;PMS_P1;PMS_P2;Temp;Humidity;BMP_temperature;BMP_pressure;BME280_temperature;BME280_humidity;BME280_pressure;Samples;Min_cycle;Max_cycle;Signal;HPM_P1;HPM_P2
2022/05/07 00:00:22;;;;;;;34.70;24.25;;;13.60;99.90;;;;;;5012596;28;20042;-74
2022/05/07 00:02:48;;;;;;;34.35;24.70;;;13.60;99.90;;;;;;5013142;28;20438;-74
2022/05/07 00:05:14;;;;;;;33.88;23.35;;;13.60;99.90;;;;;;5012835;28;20046;-74
2022/05/07 00:07:39;;;;;;;32.08;24.35;;;13.60;99.90;;;;;;5011358;28;20510;-74
2022/05/07 00:10:06;;;;;;;29.65;22.60;;;13.60;99.90;;;;;;5012197;28;20127;-74
2022/05/07 00:12:31;;;;;;;32.70;24.25;;;13.60;99.90;;;;;;5011499;28;20037;-74
2022/05/07 00:14:57;;;;;;;35.05;24.30;;;13.60;99.90;;;;;;5011839;28;20103;-74
2022/05/07 00:20:08;;;;;;;32.50;24.30;;;13.50;99.90;;;;;;5011021;28;20081;-74
2022/05/07 00:22:33;;;;;;;34.60;24.35;;;13.50;99.90;;;;;;5012366;28;20107;-74
2022/05/07 00:24:59;;;;;;;34.60;24.65;;;13.50;99.90;;;;;;5011629;28;20037;-74
2022/05/07 00:27:24;;;;;;;35.30;24.85;;;13.50;99.90;;;;;;5011353;28;20044;-74
2022/05/07 00:29:50;;;;;;;35.35;24.55;;;13.50;99.90;;;;;;5012323;28;20514;-74
2022/05/07 00:32:15;;;;;;;30.58;24.05;;;13.50;99.90;;;;;;5012122;28;20514;-74
2022/05/07 00:34:41;;;;;;;37.95;25.77;;;13.50;99.90;;;;;;5011048;28;20042;-74
2022/05/07 00:37:06;;;;;;;32.25;24.10;;;13.50;99.90;;;;;;5010936;28;20037;-74
2022/05/07 00:39:32;;;;;;;33.40;23.77;;;13.50;99.90;;;;;;5011022;28;20424;-74
2022/05/07 00:42:06;;;;;;;34.25;24.52;;;13.50;99.90;;;;;;5010863;28;20034;-74
2022/05/07 00:44:33;;;;;;;35.25;25.95;;;13.50;99.90;;;;;;5012262;28;20112;-75
2022/05/07 00:47:13;;;;;;;40.63;25.65;;;13.50;99.90;;;;;;5010835;28;20415;-74
2022/05/07 00:49:47;;;;;;;37.65;26.40;;;13.50;99.90;;;;;;5010747;28;20495;-74
2022/05/07 00:52:16;;;;;;;38.13;26.45;;;13.50;99.90;;;;;;5010471;28;20038;-74
2022/05/07 00:54:43;;;;;;;40.20;26.88;;;13.50;99.90;;;;;;5010844;28;20122;-74
2022/05/07 00:57:09;;;;;;;37.63;25.13;;;13.50;99.90;;;;;;5011081;28;20050;-75
2022/05/07 00:59:35;;;;;;;35.90;25.65;;;13.40;99.90;;;;;;5010741;28;20048;-74
2022/05/07 01:02:00;;;;;;;39.45;25.30;;;13.50;99.90;;;;;;5010235;28;20128;-74
2022/05/07 01:04:26;;;;;;;41.70;27.33;;;13.50;99.90;;;;;;5012160;28;20479;-74
2022/05/07 01:06:53;;;;;;;37.42;25.85;;;13.50;99.90;;;;;;5010863;28;20080;-74
2022/05/07 01:09:19;;;;;;;37.47;26.40;;;13.50;99.90;;;;;;5010787;28;20053;-75
2022/05/07 01:11:46;;;;;;;37.72;26.63;;;13.40;99.90;;;;;;5011724;28;20076;-75
2022/05/07 01:14:11;;;;;;;39.15;27.63;;;13.50;99.90;;;;;;5011972;28;20030;-74
2022/05/07 01:16:37;;;;;;;42.10;27.48;;;13.50;99.90;;;;;;5011722;28;20511;-74
2022/05/07 01:19:02;;;;;;;40.42;27.08;;;13.50;99.90;;;;;;5010763;28;20157;-74
2022/05/07 01:21:28;;;;;;;45.35;26.30;;;13.50;99.90;;;;;;5011644;28;20097;-74
2022/05/07 01:23:54;;;;;;;39.88;27.25;;;13.40;99.90;;;;;;5010525;28;20038;-75
2022/05/07 01:26:22;;;;;;;42.65;27.80;;;13.50;99.90;;;;;;5011769;28;20156;-74
2022/05/07 01:28:49;;;;;;;40.45;28.00;;;13.40;99.90;;;;;;5012195;28;20038;-75
2022/05/07 01:31:14;;;;;;;38.63;26.85;;;13.50;99.90;;;;;;5010008;28;20507;-74
2022/05/07 01:33:40;;;;;;;37.28;27.35;;;13.50;99.90;;;;;;5010865;28;20040;-75
2022/05/07 01:36:16;;;;;;;44.58;27.95;;;13.40;99.90;;;;;;5010396;28;20164;-74
2022/05/07 01:38:42;;;;;;;44.15;30.00;;;13.40;99.90;;;;;;5011777;28;20167;-75
2022/05/07 01:41:07;;;;;;;40.85;28.90;;;13.40;99.90;;;;;;5011238;28;20084;-74
2022/05/07 01:43:33;;;;;;;39.95;28.25;;;13.30;99.90;;;;;;5010191;28;20038;-74
2022/05/07 01:46:02;;;;;;;47.22;31.33;;;13.40;99.90;;;;;;5011802;28;20037;-74
2022/05/07 01:48:28;;;;;;;47.45;32.35;;;13.30;99.90;;;;;;5010544;28;20467;-74
2022/05/07 01:50:53;;;;;;;42.45;29.80;;;13.30;99.90;;;;;;4993606;28;20116;-74
2022/05/07 01:53:19;;;;;;;43.78;29.50;;;13.30;99.90;;;;;;5011320;28;20034;-74
2022/05/07 01:55:45;;;;;;;45.50;30.42;;;13.40;99.90;;;;;;5011439;28;20041;-74
2022/05/07 01:58:11;;;;;;;47.10;31.80;;;13.40;99.90;;;;;;5011305;28;20042;-74
2022/05/07 02:00:40;;;;;;;47.60;30.70;;;13.40;99.90;;;;;;4993553;28;20042;-74
2022/05/07 02:03:06;;;;;;;44.97;31.33;;;13.40;99.90;;;;;;5010015;28;20569;-74
2022/05/07 02:05:31;;;;;;;46.05;30.98;;;13.30;99.90;;;;;;5010331;28;20045;-74
2022/05/07 02:07:57;;;;;;;41.95;30.33;;;13.30;99.90;;;;;;5010106;28;20565;-73
2022/05/07 02:10:23;;;;;;;42.55;30.23;;;13.30;99.90;;;;;;5009842;28;20048;-74
2022/05/07 02:12:51;;;;;;;45.67;30.40;;;13.30;99.90;;;;;;5010973;28;20497;-74
2022/05/07 02:15:16;;;;;;;42.33;30.83;;;13.30;99.90;;;;;;5013502;28;20037;-74
2022/05/07 02:17:42;;;;;;;51.28;30.73;;;13.30;99.90;;;;;;5013498;28;20137;-74
2022/05/07 02:20:08;;;;;;;45.20;29.77;;;13.20;99.90;;;;;;5013192;28;20045;-74
2022/05/07 02:22:34;;;;;;;42.17;29.55;;;13.30;99.90;;;;;;5013348;28;20046;-73
2022/05/07 02:25:00;;;;;;;45.67;30.23;;;13.30;99.90;;;;;;5014541;28;20095;-74
2022/05/07 02:27:26;;;;;;;48.90;31.15;;;13.30;99.90;;;;;;5013225;28;20124;-74
2022/05/07 02:29:52;;;;;;;46.58;28.90;;;13.30;99.90;;;;;;5013320;28;20108;-73
2022/05/07 02:32:18;;;;;;;46.67;30.95;;;13.30;99.90;;;;;;5013286;28;20100;-74
2022/05/07 02:34:43;;;;;;;45.90;30.52;;;13.30;99.90;;;;;;5013408;28;20033;-74
2022/05/07 02:37:10;;;;;;;42.67;28.92;;;13.30;99.90;;;;;;5013201;28;20046;-74
2022/05/07 02:39:36;;;;;;;46.58;30.75;;;13.30;99.90;;;;;;5013075;28;20060;-74
2022/05/07 02:44:47;;;;;;;45.05;29.70;;;13.30;99.90;;;;;;5014420;28;20136;-74
2022/05/07 02:47:12;;;;;;;40.33;30.15;;;13.30;99.90;;;;;;5013125;28;20085;-73
2022/05/07 02:49:38;;;;;;;45.38;30.42;;;13.30;99.90;;;;;;5012789;28;20415;-74
2022/05/07 02:52:04;;;;;;;43.03;30.40;;;13.30;99.90;;;;;;5012343;28;20037;-74
2022/05/07 02:54:30;;;;;;;39.85;27.85;;;13.30;99.90;;;;;;5012966;28;20407;-74
2022/05/07 02:56:56;;;;;;;40.63;29.05;;;13.30;99.90;;;;;;5012740;28;20034;-74
2022/05/07 02:59:21;;;;;;;38.33;27.58;;;13.30;99.90;;;;;;5012646;28;20136;-74
2022/05/07 03:01:47;;;;;;;41.42;28.63;;;13.30;99.90;;;;;;5012500;28;20030;-74
2022/05/07 03:04:13;;;;;;;45.17;30.75;;;13.30;99.90;;;;;;5012629;28;20124;-74
2022/05/07 03:06:39;;;;;;;41.47;29.20;;;13.20;99.90;;;;;;5012589;28;20565;-74
2022/05/07 03:09:05;;;;;;;40.00;28.48;;;13.30;99.90;;;;;;5012395;28;20455;-74
2022/05/07 03:11:33;;;;;;;40.45;30.83;;;13.30;99.90;;;;;;5012140;28;20049;-74
2022/05/07 03:14:06;;;;;;;40.63;29.70;;;13.30;99.90;;;;;;5012557;28;20049;-74
2022/05/07 03:16:34;;;;;;;45.67;28.65;;;13.20;99.90;;;;;;5012399;28;20042;-74
2022/05/07 03:18:59;;;;;;;38.92;27.77;;;13.20;99.90;;;;;;5012305;28;20089;-74
2022/05/07 03:21:25;;;;;;;38.25;28.48;;;13.20;99.90;;;;;;5011940;28;20077;-73
2022/05/07 03:23:50;;;;;;;42.78;28.30;;;13.20;99.90;;;;;;5011271;28;20049;-73
2022/05/07 03:26:17;;;;;;;39.95;28.80;;;13.20;99.90;;;;;;5011893;28;20050;-73
2022/05/07 03:28:42;;;;;;;40.55;28.40;;;13.20;99.90;;;;;;5012125;28;20056;-73
2022/05/07 03:31:08;;;;;;;45.50;28.88;;;13.20;99.90;;;;;;5011818;28;20041;-74
2022/05/07 03:33:34;;;;;;;40.85;28.88;;;13.20;99.90;;;;;;5012226;28;20044;-73
2022/05/07 03:35:59;;;;;;;39.47;27.75;;;13.20;99.90;;;;;;5011993;28;20034;-73
2022/05/07 03:38:25;;;;;;;41.00;27.25;;;13.10;99.90;;;;;;4995890;28;20037;-74
2022/05/07 03:40:51;;;;;;;42.10;28.73;;;13.10;99.90;;;;;;5011645;28;20492;-73
2022/05/07 03:43:16;;;;;;;40.72;28.30;;;13.10;99.90;;;;;;5013184;28;20045;-73
2022/05/07 03:45:43;;;;;;;39.83;26.85;;;13.10;99.90;;;;;;5011872;28;20125;-73
2022/05/07 03:48:09;;;;;;;37.30;27.88;;;13.10;99.90;;;;;;5011805;28;20052;-74
2022/05/07 03:50:35;;;;;;;41.25;28.67;;;13.10;99.90;;;;;;5011310;28;20124;-74
2022/05/07 03:55:45;;;;;;;40.25;27.50;;;13.00;99.90;;;;;;5011698;28;20042;-73
2022/05/07 03:58:11;;;;;;;35.40;26.23;;;13.10;99.90;;;;;;5011635;28;20034;-73
2022/05/07 04:00:39;;;;;;;41.78;28.27;;;13.00;99.90;;;;;;5011319;28;20128;-73
2022/05/07 04:03:05;;;;;;;36.65;27.77;;;12.90;99.90;;;;;;5011470;28;20202;-73
2022/05/07 04:05:31;;;;;;;38.80;28.95;;;12.90;99.90;;;;;;5011464;28;20120;-73
2022/05/07 04:07:56;;;;;;;40.08;28.45;;;12.90;99.90;;;;;;5011287;28;20041;-73
2022/05/07 04:10:22;;;;;;;33.63;26.33;;;12.90;99.90;;;;;;4994645;28;20124;-74
2022/05/07 04:12:51;;;;;;;37.50;26.80;;;12.90;99.90;;;;;;5011421;28;20042;-74
2022/05/07 04:15:17;;;;;;;37.10;26.92;;;12.80;99.90;;;;;;5011301;28;20046;-73
2022/05/07 04:17:42;;;;;;;37.72;27.73;;;12.80;99.90;;;;;;5011431;28;20120;-74
2022/05/07 04:20:09;;;;;;;41.80;29.13;;;12.90;99.90;;;;;;5012443;28;20069;-74
2022/05/07 04:22:35;;;;;;;37.38;28.77;;;12.80;99.90;;;;;;5011404;28;20403;-73
2022/05/07 04:25:02;;;;;;;36.30;26.40;;;12.80;99.90;;;;;;5011120;28;20124;-73
2022/05/07 04:27:27;;;;;;;38.28;28.17;;;12.80;99.90;;;;;;5011080;28;20038;-73
2022/05/07 04:29:53;;;;;;;40.30;28.65;;;12.80;99.90;;;;;;5012353;28;20140;-73
2022/05/07 04:32:19;;;;;;;38.95;27.98;;;12.90;99.90;;;;;;5012151;28;20034;-73
2022/05/07 04:34:45;;;;;;;36.83;27.98;;;12.90;99.90;;;;;;5012315;28;20046;-74
2022/05/07 04:37:10;;;;;;;40.30;29.95;;;12.90;99.90;;;;;;5010812;28;20030;-73
2022/05/07 04:39:36;;;;;;;41.33;30.05;;;12.90;99.90;;;;;;5010922;28;20503;-73
2022/05/07 04:42:02;;;;;;;37.08;28.02;;;12.90;99.90;;;;;;5010671;28;20045;-73
2022/05/07 04:44:28;;;;;;;40.47;27.38;;;12.90;99.90;;;;;;5011005;28;20084;-73
2022/05/07 04:46:53;;;;;;;39.05;27.63;;;13.00;99.90;;;;;;5010783;28;20073;-73
2022/05/07 04:49:19;;;;;;;37.58;27.63;;;13.00;99.90;;;;;;5010741;28;20045;-73
2022/05/07 04:51:47;;;;;;;45.92;29.92;;;13.10;99.90;;;;;;5010587;28;20042;-73
2022/05/07 04:54:13;;;;;;;36.75;29.08;;;13.10;99.90;;;;;;5010731;28;20041;-73
2022/05/07 04:56:39;;;;;;;38.83;29.67;;;13.10;99.90;;;;;;5010760;28;20045;-73
2022/05/07 04:59:04;;;;;;;39.78;29.10;;;13.10;99.90;;;;;;4994302;28;20042;-73
2022/05/07 05:01:30;;;;;;;38.42;27.20;;;13.20;99.90;;;;;;4993960;28;20034;-73
2022/05/07 05:03:55;;;;;;;39.08;29.70;;;13.20;99.90;;;;;;5010656;28;20093;-74
2022/05/07 05:06:21;;;;;;;37.42;28.67;;;13.20;99.90;;;;;;5010875;28;20042;-73
2022/05/07 05:08:47;;;;;;;41.30;27.23;;;13.20;99.90;;;;;;5010549;28;20046;-73
2022/05/07 05:11:12;;;;;;;44.88;29.52;;;13.20;99.90;;;;;;5010319;28;20042;-73
2022/05/07 05:13:37;;;;;;;36.60;27.73;;;13.30;99.90;;;;;;5011747;28;20496;-73
2022/05/07 05:16:03;;;;;;;39.17;29.80;;;13.30;99.90;;;;;;4994268;28;20042;-73
2022/05/07 05:18:29;;;;;;;38.78;29.83;;;13.30;99.90;;;;;;5010501;28;20057;-73
2022/05/07 05:20:55;;;;;;;41.33;29.08;;;13.30;99.90;;;;;;5010188;28;20103;-73
2022/05/07 05:23:22;;;;;;;43.42;30.05;;;13.30;99.90;;;;;;5010391;28;20042;-73
2022/05/07 05:25:48;;;;;;;39.80;29.35;;;13.30;99.90;;;;;;5010512;28;20081;-73
2022/05/07 05:28:13;;;;;;;41.20;29.92;;;13.40;99.90;;;;;;5011707;28;20041;-74
2022/05/07 05:30:39;;;;;;;39.63;28.23;;;13.30;99.90;;;;;;5009992;28;20467;-74
2022/05/07 05:33:05;;;;;;;38.40;30.63;;;13.40;99.90;;;;;;5010604;28;20038;-73
2022/05/07 05:35:31;;;;;;;42.38;29.13;;;13.40;99.90;;;;;;5010312;28;20034;-73
2022/05/07 05:37:56;;;;;;;36.88;27.98;;;13.40;99.90;;;;;;5011755;28;20046;-73
2022/05/07 05:40:22;;;;;;;38.17;27.95;;;13.40;99.90;;;;;;5010239;28;20053;-73
2022/05/07 05:42:47;;;;;;;41.42;29.45;;;13.50;99.90;;;;;;5010473;28;20034;-73
2022/05/07 05:45:13;;;;;;;36.03;28.45;;;13.50;99.90;;;;;;5010183;28;20088;-73
2022/05/07 05:47:38;;;;;;;35.67;28.05;;;13.60;99.90;;;;;;5011150;28;20124;-73
2022/05/07 05:50:05;;;;;;;33.72;26.83;;;13.60;99.90;;;;;;5014950;28;20049;-74
2022/05/07 05:52:31;;;;;;;36.75;29.15;;;13.70;99.90;;;;;;5015157;28;20104;-74
2022/05/07 05:54:56;;;;;;;38.10;28.67;;;13.70;99.90;;;;;;5015367;28;20042;-74
2022/05/07 05:57:22;;;;;;;39.92;29.45;;;13.80;99.90;;;;;;5013861;28;20034;-74
2022/05/07 05:59:47;;;;;;;35.33;26.98;;;13.80;99.90;;;;;;5015033;28;20113;-74
2022/05/07 06:02:17;;;;;;;37.67;26.65;;;13.90;99.90;;;;;;5013641;28;20050;-73
2022/05/07 06:04:43;;;;;;;34.60;27.33;;;13.90;99.90;;;;;;5013994;28;20465;-73
2022/05/07 06:07:08;;;;;;;36.88;27.17;;;14.00;99.90;;;;;;4997302;28;20065;-74
2022/05/07 06:09:34;;;;;;;36.38;27.25;;;14.00;99.90;;;;;;5013798;28;20044;-74
2022/05/07 06:12:00;;;;;;;35.03;27.67;;;14.10;99.90;;;;;;5013457;28;20480;-74
2022/05/07 06:14:25;;;;;;;36.75;26.30;;;14.10;99.90;;;;;;5013438;28;20500;-74
2022/05/07 06:16:51;;;;;;;35.05;27.65;;;14.20;99.90;;;;;;5013635;28;20650;-74
2022/05/07 06:19:17;;;;;;;37.10;27.55;;;14.20;99.90;;;;;;5014882;28;20496;-74
2022/05/07 06:21:42;;;;;;;37.35;27.95;;;14.20;99.90;;;;;;5013295;28;20095;-74
2022/05/07 06:29:36;;;;;;;35.72;25.83;;;14.40;99.90;;;;;;5013355;28;20400;-74
2022/05/07 06:32:02;;;;;;;32.10;25.33;;;14.50;99.90;;;;;;5012758;28;20030;-74
2022/05/07 06:34:28;;;;;;;33.25;25.92;;;14.60;99.90;;;;;;5013019;28;20038;-74
2022/05/07 06:36:54;;;;;;;34.10;25.58;;;14.70;99.90;;;;;;5013408;28;20045;-74
2022/05/07 06:39:20;;;;;;;32.53;24.67;;;14.70;99.90;;;;;;5013032;28;20045;-74
2022/05/07 06:41:48;;;;;;;33.83;24.77;;;14.70;99.90;;;;;;5012637;28;20049;-74
2022/05/07 06:44:14;;;;;;;32.03;25.10;;;14.70;99.90;;;;;;5012984;28;20038;-74
2022/05/07 06:46:39;;;;;;;33.58;26.55;;;14.80;99.90;;;;;;5014207;28;20064;-73
2022/05/07 06:49:05;;;;;;;35.17;25.88;;;14.80;99.90;;;;;;5013093;28;20391;-73
2022/05/07 06:51:32;;;;;;;31.90;26.42;;;14.90;99.90;;;;;;5012481;28;20547;-74
2022/05/07 06:53:57;;;;;;;32.05;25.27;;;14.80;99.90;;;;;;4996234;28;20037;-75
2022/05/07 06:56:23;;;;;;;29.20;24.05;;;14.90;99.90;;;;;;5012704;28;20034;-74
2022/05/07 06:58:49;;;;;;;32.15;25.10;;;14.80;99.90;;;;;;5012407;28;20061;-73
2022/05/07 07:01:15;;;;;;;29.30;24.42;;;15.00;99.90;;;;;;5013692;28;20049;-73
2022/05/07 07:03:40;;;;;;;30.95;24.65;;;15.00;99.90;;;;;;5012811;28;20108;-73
2022/05/07 07:06:06;;;;;;;32.83;24.17;;;15.00;99.90;;;;;;5012651;28;20085;-73
2022/05/07 07:08:32;;;;;;;32.38;23.63;;;15.10;99.90;;;;;;5012430;28;20041;-73
2022/05/07 07:10:58;;;;;;;29.50;24.90;;;15.20;99.90;;;;;;5012265;28;20406;-73
2022/05/07 07:13:24;;;;;;;29.67;23.67;;;15.30;99.90;;;;;;5012312;28;20041;-73
2022/05/07 07:15:50;;;;;;;25.83;22.77;;;15.40;99.90;;;;;;5012356;28;20341;-73
2022/05/07 07:18:16;;;;;;;28.75;21.88;;;15.60;99.90;;;;;;5012437;28;20084;-73
2022/05/07 07:20:44;;;;;;;28.48;21.63;;;15.80;99.90;;;;;;4995619;28;20120;-73
2022/05/07 07:23:11;;;;;;;27.83;21.65;;;16.10;99.90;;;;;;5012079;28;20057;-73
2022/05/07 07:25:41;;;;;;;24.73;20.67;;;16.50;99.90;;;;;;5012148;28;20511;-73
2022/05/07 07:28:11;;;;;;;25.45;20.15;;;16.50;99.90;;;;;;4995829;28;20045;-74
2022/05/07 07:30:37;;;;;;;27.13;21.48;;;16.70;99.90;;;;;;5011592;28;20416;-73
2022/05/07 07:33:07;;;;;;;23.33;17.90;;;16.70;99.90;;;;;;5011877;28;20054;-74
2022/05/07 07:35:33;;;;;;;23.50;18.63;;;16.70;99.90;;;;;;5012269;28;20037;-74
2022/05/07 07:37:58;;;;;;;26.05;19.98;;;16.80;99.90;;;;;;4995597;28;20492;-74
2022/05/07 07:40:24;;;;;;;27.38;20.42;;;16.80;99.90;;;;;;5011885;28;20133;-72
2022/05/07 07:42:49;;;;;;;25.02;20.50;;;16.80;99.90;;;;;;5012135;28;20037;-73
2022/05/07 07:48:01;;;;;;;25.23;20.45;;;16.70;99.90;;;;;;5011589;28;20499;-73
2022/05/07 07:50:30;;;;;;;26.27;19.80;;;16.70;99.90;;;;;;5011516;28;20061;-72
2022/05/07 07:52:57;;;;;;;26.50;19.60;;;16.70;99.90;;;;;;5012895;28;20045;-73
2022/05/07 07:55:23;;;;;;;26.67;19.77;;;16.70;99.90;;;;;;5011619;28;20069;-73
2022/05/07 07:57:52;;;;;;;27.20;20.80;;;16.60;99.90;;;;;;5012893;28;20073;-72
2022/05/07 08:00:18;;;;;;;26.40;20.30;;;16.70;99.90;;;;;;5012590;28;20034;-72
2022/05/07 08:02:52;;;;;;;28.13;20.33;;;16.70;99.90;;;;;;5011641;28;20099;-72
2022/05/07 08:05:30;;;;;;;27.30;19.80;;;16.70;99.90;;;;;;5011587;28;20045;-73
2022/05/07 08:13:24;;;;;;;24.95;19.52;;;16.80;99.90;;;;;;5012614;28;20046;-72
2022/05/07 08:15:50;;;;;;;30.85;22.20;;;16.80;99.90;;;;;;5011322;28;20030;-73
2022/05/07 08:18:16;;;;;;;27.70;22.10;;;16.50;99.90;;;;;;5011233;28;20050;-73
2022/05/07 08:20:43;;;;;;;27.38;22.92;;;16.70;99.90;;;;;;5012219;28;20070;-72
2022/05/07 08:23:09;;;;;;;28.08;23.58;;;16.60;99.90;;;;;;5013714;28;20470;-73
2022/05/07 08:25:35;;;;;;;30.33;23.60;;;16.40;99.90;;;;;;5019111;28;20080;-72
2022/05/07 08:28:01;;;;;;;30.08;22.63;;;16.50;99.90;;;;;;5010931;28;20073;-72
2022/05/07 08:30:26;;;;;;;28.98;23.45;;;16.70;99.90;;;;;;5010630;28;20053;-72
2022/05/07 08:32:52;;;;;;;29.67;22.30;;;16.70;99.90;;;;;;5012366;28;20627;-73
2022/05/07 08:35:18;;;;;;;31.55;23.55;;;16.70;99.90;;;;;;5018747;28;20408;-72
2022/05/07 08:37:44;;;;;;;30.05;21.88;;;16.80;99.90;;;;;;5021668;28;20096;-73
2022/05/07 08:40:14;;;;;;;29.80;23.73;;;16.90;99.90;;;;;;5019045;28;20205;-73
2022/05/07 08:42:40;;;;;;;30.20;22.98;;;17.00;99.90;;;;;;5014840;28;20099;-73
2022/05/07 08:45:06;;;;;;;28.70;22.80;;;17.10;99.90;;;;;;5011116;28;20037;-73
2022/05/07 08:47:32;;;;;;;29.00;22.58;;;17.30;99.90;;;;;;5018883;28;20515;-73
2022/05/07 08:49:58;;;;;;;28.33;22.48;;;17.40;99.90;;;;;;5029843;28;20049;-73
2022/05/07 08:52:24;;;;;;;28.20;21.83;;;17.50;99.90;;;;;;5030096;28;20468;-73
2022/05/07 08:54:50;;;;;;;23.92;21.02;;;17.50;99.90;;;;;;5030555;28;20400;-73
2022/05/07 08:57:15;;;;;;;27.77;21.65;;;17.60;99.90;;;;;;5030198;28;20045;-73
2022/05/07 08:59:43;;;;;;;71.65;24.70;;;17.60;99.90;;;;;;5014067;28;20380;-72
2022/05/07 09:02:09;;;;;;;64.75;24.10;;;17.50;99.90;;;;;;5029828;28;20041;-73
2022/05/07 09:04:36;;;;;;;27.88;20.17;;;17.50;99.00;;;;;;5031421;28;20175;-74
2022/05/07 09:07:03;;;;;;;28.85;20.98;;;17.40;98.10;;;;;;5030459;28;20049;-74
2022/05/07 09:09:32;;;;;;;25.40;20.17;;;17.30;97.40;;;;;;5030286;28;20503;-74
2022/05/07 09:11:58;;;;;;;25.50;21.13;;;17.20;97.90;;;;;;5030095;28;20056;-75
2022/05/07 09:14:31;;;;;;;26.70;21.90;;;17.20;98.10;;;;;;5030304;28;20088;-76
2022/05/07 09:17:00;;;;;;;28.40;21.00;;;17.10;98.00;;;;;;5030455;28;20068;-75
2022/05/07 09:19:28;;;;;;;30.30;21.35;;;17.10;97.90;;;;;;5030236;28;20439;-73
2022/05/07 09:22:08;;;;;;;31.40;21.65;;;17.10;98.40;;;;;;5031088;28;20052;-74
2022/05/07 09:24:34;;;;;;;31.88;22.73;;;17.00;98.70;;;;;;5034497;28;20041;-73
2022/05/07 09:27:00;;;;;;;26.85;19.60;;;16.80;99.70;;;;;;5035638;28;20044;-73
2022/05/07 09:29:30;;;;;;;32.60;22.52;;;16.80;99.10;;;;;;5034128;28;20049;-73
2022/05/07 09:32:16;;;;;;;30.60;23.35;;;16.80;99.90;;;;;;5029103;28;20064;-74
2022/05/07 09:37:39;;;;;;;32.03;23.35;;;16.70;99.90;;;;;;5034074;28;20079;-75
2022/05/07 09:40:06;;;;;;;30.15;22.27;;;16.80;99.90;;;;;;5033150;28;20045;-75
2022/05/07 09:42:34;;;;;;;35.55;25.77;;;16.90;99.90;;;;;;5031554;28;20045;-75
2022/05/07 09:45:03;;;;;;;35.50;27.50;;;16.90;99.90;;;;;;5033829;28;20041;-74
2022/05/07 09:47:30;;;;;;;46.10;31.33;;;16.90;99.90;;;;;;5033886;28;20076;-74
2022/05/07 09:58:16;;;;;;;49.80;32.75;;;16.80;99.90;;;;;;5034884;28;20128;-72
2022/05/07 10:01:39;;;;;;;43.20;32.15;;;16.90;99.90;;;;;;5034576;28;20112;-73
2022/05/07 10:04:06;;;;;;;43.13;30.98;;;16.80;99.90;;;;;;5015814;28;20120;-74
2022/05/07 10:06:45;;;;;;;47.22;32.47;;;16.80;99.90;;;;;;5031228;28;20529;-75
2022/05/07 10:09:29;;;;;;;41.90;30.60;;;16.80;99.90;;;;;;5017996;28;20052;-74
2022/05/07 10:11:57;;;;;;;42.33;29.52;;;16.90;99.90;;;;;;5021247;28;20041;-74
2022/05/07 10:14:30;;;;;;;44.85;31.35;;;17.00;99.90;;;;;;5014928;28;20417;-74
2022/05/07 10:17:08;;;;;;;42.30;29.02;;;17.00;99.90;;;;;;5013549;28;20100;-74
2022/05/07 10:19:45;;;;;;;47.50;31.88;;;17.10;99.90;;;;;;5013465;28;20048;-74
2022/05/07 10:22:24;;;;;;;41.25;28.50;;;17.10;99.90;;;;;;5015792;28;20037;-75
2022/05/07 10:25:04;;;;;;;38.75;27.75;;;17.00;99.90;;;;;;5013439;28;20565;-74
2022/05/07 10:27:32;;;;;;;39.13;27.80;;;16.90;99.90;;;;;;5013796;28;20472;-74
2022/05/07 10:30:15;;;;;;;44.92;28.27;;;16.90;99.90;;;;;;5012986;28;20042;-75
2022/05/07 10:33:03;;;;;;;38.08;27.73;;;17.00;99.90;;;;;;5013401;28;20128;-75
2022/05/07 10:35:42;;;;;;;37.50;27.25;;;16.90;99.90;;;;;;5013590;28;20396;-74
2022/05/07 10:38:17;;;;;;;36.15;26.55;;;17.00;99.90;;;;;;5013663;28;20057;-74
2022/05/07 10:41:11;;;;;;;37.58;27.92;;;17.00;99.90;;;;;;5013025;28;20046;-75
2022/05/07 10:43:42;;;;;;;41.00;28.58;;;17.10;99.90;;;;;;5013128;28;20054;-74
2022/05/07 10:46:08;;;;;;;40.30;26.50;;;17.00;99.90;;;;;;5013026;28;20049;-74
2022/05/07 10:48:45;;;;;;;37.88;24.80;;;17.10;99.90;;;;;;5014323;28;20038;-73
2022/05/07 10:51:34;;;;;;;36.40;26.10;;;17.20;99.90;;;;;;5013801;28;20057;-74
2022/05/07 10:54:03;;;;;;;35.22;26.70;;;17.50;99.90;;;;;;5025610;28;20398;-74
2022/05/07 10:56:33;;;;;;;37.47;25.27;;;17.60;99.90;;;;;;5013792;28;20042;-74
2022/05/07 10:59:00;;;;;;;37.70;25.45;;;17.60;99.90;;;;;;5017966;28;20038;-73
2022/05/07 11:01:27;;;;;;;31.52;23.85;;;17.80;99.90;;;;;;5012799;28;20064;-74
2022/05/07 11:04:07;;;;;;;35.75;24.67;;;17.90;99.90;;;;;;5013848;28;20077;-75
2022/05/07 11:06:48;;;;;;;31.42;24.25;;;17.90;99.90;;;;;;5012758;28;20045;-71
2022/05/07 11:09:25;;;;;;;35.83;24.23;;;18.00;99.30;;;;;;5013525;28;20038;-71
2022/05/07 11:11:56;;;;;;;31.35;23.02;;;18.00;98.60;;;;;;5012426;28;20527;-71
2022/05/07 11:14:31;;;;;;;31.60;22.67;;;18.00;99.90;;;;;;5013593;28;20120;-71
2022/05/07 11:16:59;;;;;;;33.08;24.25;;;17.90;98.90;;;;;;5013785;28;20503;-72
2022/05/07 11:19:30;;;;;;;35.20;24.95;;;17.80;99.90;;;;;;5012452;28;20088;-70
2022/05/07 11:21:57;;;;;;;33.20;24.27;;;17.80;99.50;;;;;;5013342;28;20087;-70
2022/05/07 11:24:25;;;;;;;42.13;26.33;;;17.60;99.70;;;;;;5013568;28;20447;-70
2022/05/07 11:26:55;;;;;;;32.05;23.65;;;17.70;99.90;;;;;;5012189;28;20038;-70
2022/05/07 11:29:22;;;;;;;36.50;25.65;;;17.70;99.90;;;;;;4995864;28;20077;-70
2022/05/07 11:32:00;;;;;;;32.40;24.73;;;17.70;99.90;;;;;;5015216;28;20038;-71
2022/05/07 11:34:30;;;;;;;37.33;26.77;;;17.70;99.90;;;;;;5010090;28;20536;-70
2022/05/07 11:37:08;;;;;;;37.65;23.73;;;17.50;99.90;;;;;;5012191;28;20073;-71
2022/05/07 11:39:33;;;;;;;35.40;25.83;;;17.40;99.90;;;;;;5013176;28;20096;-71
2022/05/07 11:41:59;;;;;;;35.88;26.92;;;17.40;99.90;;;;;;5012890;28;20042;-71
2022/05/07 11:47:22;;;;;;;41.35;27.65;;;17.20;99.90;;;;;;5012721;28;20638;-70
2022/05/07 11:50:06;;;;;;;36.03;25.67;;;17.00;99.90;;;;;;5012970;28;20080;-70
2022/05/07 11:52:32;;;;;;;37.80;25.77;;;17.00;99.90;;;;;;5011848;28;20487;-70
2022/05/07 11:55:05;;;;;;;29.42;21.30;;;16.90;99.90;;;;;;5013160;28;20464;-71
2022/05/07 11:57:33;;;;;;;25.95;19.05;;;16.80;99.90;;;;;;5013034;28;20494;-71
2022/05/07 12:00:12;;;;;;;26.33;18.38;;;16.80;99.90;;;;;;5011420;28;20045;-71
2022/05/07 12:02:39;;;;;;;26.88;17.45;;;16.70;99.90;;;;;;5012918;28;20053;-71
2022/05/07 12:05:05;;;;;;;25.40;18.15;;;16.70;99.90;;;;;;5011584;28;20038;-71
2022/05/07 12:07:41;;;;;;;27.05;17.08;;;16.50;99.90;;;;;;5109661;27;20392;-70
2022/05/07 12:10:07;;;;;;;26.77;18.02;;;16.50;99.90;;;;;;5091348;28;20097;-70
2022/05/07 12:12:33;;;;;;;26.13;18.27;;;16.60;99.90;;;;;;5109338;28;20067;-70
2022/05/07 12:14:59;;;;;;;28.90;17.02;;;16.70;99.90;;;;;;5108100;28;20086;-70
2022/05/07 12:20:09;;;;;;;26.05;18.58;;;16.60;99.90;;;;;;5109267;28;20048;-69
2022/05/07 12:30:48;;;;;;;19.85;13.50;;;16.50;99.90;;;;;;5109076;28;20039;-71
2022/05/07 12:33:14;;;;;;;16.30;11.02;;;16.40;99.90;;;;;;5108050;28;20035;-71
2022/05/07 12:35:39;;;;;;;15.02;11.13;;;16.40;99.90;;;;;;5108054;28;20051;-71
2022/05/07 12:38:05;;;;;;;14.50;9.70;;;16.40;99.90;;;;;;5107876;28;20043;-71
2022/05/07 12:40:31;;;;;;;15.40;11.32;;;16.60;99.90;;;;;;5107481;28;20512;-72
2022/05/07 12:42:58;;;;;;;16.10;10.85;;;16.60;99.90;;;;;;5107596;28;20096;-72
2022/05/07 12:45:25;;;;;;;15.40;11.43;;;16.80;99.90;;;;;;5108916;28;20497;-72
2022/05/07 12:47:50;;;;;;;17.02;11.75;;;16.80;99.90;;;;;;5107682;28;20048;-71
2022/05/07 12:50:16;;;;;;;17.30;11.60;;;16.90;99.90;;;;;;5108488;28;20039;-71
2022/05/07 12:52:42;;;;;;;16.92;11.23;;;17.00;99.90;;;;;;5108916;28;20032;-71
2022/05/07 12:55:08;;;;;;;16.70;10.63;;;17.10;99.90;;;;;;5107524;28;20516;-72
2022/05/07 12:57:34;;;;;;;15.00;9.93;;;17.00;99.90;;;;;;5107408;28;20083;-71
2022/05/07 12:59:59;;;;;;;15.48;10.60;;;17.10;99.90;;;;;;5108690;28;20083;-71
2022/05/07 13:02:25;;;;;;;14.05;10.43;;;16.90;99.90;;;;;;5105333;28;20032;-70
2022/05/07 13:04:51;;;;;;;15.90;10.70;;;17.00;99.90;;;;;;5106709;28;20039;-70
2022/05/07 13:07:16;;;;;;;15.60;10.48;;;17.10;99.90;;;;;;5107176;28;20036;-70
2022/05/07 13:09:42;;;;;;;15.15;10.73;;;17.40;99.90;;;;;;5108666;28;20143;-70
2022/05/07 13:12:11;;;;;;;18.00;11.32;;;17.00;99.90;;;;;;5106880;28;20042;-70
2022/05/07 13:14:37;;;;;;;13.70;9.73;;;16.90;99.90;;;;;;5108440;28;20032;-70
2022/05/07 13:17:03;;;;;;;14.45;9.85;;;16.80;99.90;;;;;;5105898;28;20128;-71